»·PEaware :: TPX9106 KSAN-KSNA

TPX9106 :: KSAN-KSNA

FLIGHT INFORMATION

Flight Status: Arrived
Operator: ATP Experience
More flights by this operator :: More flights under this callsign
Pilot: Joe C. (3077)
Aircraft: BEECH AIRCRAFT BEECH AIRLINER
(B190)
More flights by this aircraft type
Origin: KSAN San Diego Intl-Lindbergh
United States
Destination: KSNA John Wayne-Orange Co
United States
More flights between these airports :: More routes between these airports
Route: PEBLE6 SLI
File this flight plan on PilotEdge
Remarks: graduated to NOOB!
Altitude:
(Current/Filed)
8,000ft
Speed:
(Current/Filed)
190kts
Departed: 01-Aug-18 09:43 PM
Arrived: 01-Aug-18 10:14 PM
Distance/Time
Traveled:
66nm/0:31
Distance/Time
To Go:
Arrived

Flight Plot

Page will automatically refresh every two minutes.


Map Options




Map Legend


Flown Route
Filed Route
Departure Airport
Arrival Airport
Navaid (VOR, NDB)
Fix

Horizontal Profiles

Position Reports

Time Latitude Longitude Heading Altitude Ground
Speed
01-Aug-18 21:12 32.732352 -117.195703 318 17ft 0kts
01-Aug-18 21:13 32.732352 -117.195703 318 17ft 0kts
01-Aug-18 21:14 32.732352 -117.195703 318 17ft 0kts
01-Aug-18 21:15 32.732352 -117.195703 318 17ft 0kts
01-Aug-18 21:16 32.732352 -117.195703 318 17ft 0kts
01-Aug-18 21:17 32.732352 -117.195703 318 17ft 0kts
01-Aug-18 21:18 32.732352 -117.195703 318 17ft 0kts
01-Aug-18 21:19 32.732352 -117.195703 318 17ft 0kts
01-Aug-18 21:20 32.732352 -117.195703 318 17ft 0kts
01-Aug-18 21:21 32.732352 -117.195703 318 17ft 0kts
01-Aug-18 21:22 32.732352 -117.195703 318 17ft 0kts
01-Aug-18 21:23 32.732352 -117.195703 318 17ft 0kts
01-Aug-18 21:24 32.732352 -117.195703 318 17ft 0kts
01-Aug-18 21:25 32.732352 -117.195703 318 17ft 0kts
01-Aug-18 21:26 32.732352 -117.195703 318 17ft 0kts
01-Aug-18 21:27 32.732352 -117.195703 318 17ft 0kts
01-Aug-18 21:28 32.732352 -117.195703 318 17ft 0kts
01-Aug-18 21:29 32.732352 -117.195703 318 17ft 0kts
01-Aug-18 21:30 32.732353 -117.195703 318 17ft 0kts
01-Aug-18 21:31 32.732353 -117.195703 318 17ft 0kts
01-Aug-18 21:32 32.732354 -117.195704 317 17ft 0kts
01-Aug-18 21:33 32.732354 -117.195704 317 17ft 0kts
01-Aug-18 21:34 32.732355 -117.195704 317 17ft 0kts
01-Aug-18 21:35 32.732355 -117.195704 317 17ft 0kts
01-Aug-18 21:36 32.732356 -117.195704 316 17ft 0kts
01-Aug-18 21:37 32.732356 -117.195704 316 17ft 0kts
01-Aug-18 21:38 32.732356 -117.195704 316 17ft 0kts
01-Aug-18 21:39 32.732356 -117.195704 316 17ft 0kts
01-Aug-18 21:40 32.732356 -117.195704 316 17ft 0kts
01-Aug-18 21:41 32.732356 -117.195704 316 17ft 0kts
01-Aug-18 21:42 32.732139 -117.196112 160 17ft 3kts
01-Aug-18 21:43 32.732236 -117.194984 52 18ft 12kts
01-Aug-18 21:44 32.731627 -117.186131 105 15ft 41kts
01-Aug-18 21:45 32.729482 -117.176711 80 20ft 0kts
01-Aug-18 21:46 32.730234 -117.175504 285 22ft 0kts
01-Aug-18 21:47 32.730235 -117.175505 285 22ft 0kts
01-Aug-18 21:48 32.741830 -117.206846 306 1061ft 164kts
01-Aug-18 21:49 32.775502 -117.256195 306 2801ft 202kts
01-Aug-18 21:50 32.810313 -117.311517 301 4427ft 212kts
01-Aug-18 21:51 32.841708 -117.372638 300 5676ft 225kts
01-Aug-18 21:52 32.877025 -117.434471 305 6840ft 227kts
01-Aug-18 21:53 32.919927 -117.490078 330 7535ft 240kts
01-Aug-18 21:54 32.978803 -117.527769 333 8052ft 250kts
01-Aug-18 21:55 33.025867 -117.590789 306 8083ft 266kts
01-Aug-18 21:56 33.071482 -117.660384 301 8031ft 268kts
01-Aug-18 21:57 33.114013 -117.731336 310 7938ft 269kts
01-Aug-18 21:58 33.163801 -117.797723 310 7857ft 268kts
01-Aug-18 21:59 33.208464 -117.868095 306 7960ft 263kts
01-Aug-18 22:00 33.252431 -117.938276 305 8043ft 262kts
01-Aug-18 22:01 33.312446 -117.981887 357 7775ft 269kts
01-Aug-18 22:02 33.386438 -117.974319 9 7741ft 271kts
01-Aug-18 22:03 33.458022 -117.952655 17 7942ft 268kts
01-Aug-18 22:04 33.528168 -117.930848 352 8068ft 271kts
01-Aug-18 22:05 33.594769 -117.968895 325 8126ft 269kts
01-Aug-18 22:06 33.657982 -118.010586 342 8088ft 272kts
01-Aug-18 22:07 33.731176 -118.019901 23 7279ft 266kts
01-Aug-18 22:08 33.785376 -117.969180 39 4576ft 234kts
01-Aug-18 22:09 33.822539 -117.919986 103 3207ft 175kts
01-Aug-18 22:10 33.796448 -117.874627 117 3100ft 156kts
01-Aug-18 22:11 33.776202 -117.831111 139 2543ft 146kts
01-Aug-18 22:12 33.744579 -117.829057 187 1361ft 105kts
01-Aug-18 22:13 33.716968 -117.843423 204 811ft 110kts
01-Aug-18 22:14 33.690645 -117.859449 204 295ft 108kts
01-Aug-18 22:15 33.672954 -117.870597 204 61ft 32kts
01-Aug-18 22:16 33.669596 -117.870401 41 61ft 8kts
01-Aug-18 22:17 33.671525 -117.868468 30 61ft 13kts
01-Aug-18 22:18 33.674176 -117.866360 26 61ft 7kts
01-Aug-18 22:19 33.676614 -117.864865 28 61ft 12kts
01-Aug-18 22:20 33.680209 -117.862594 27 61ft 16kts
01-Aug-18 22:21 33.682294 -117.860371 173 61ft 4kts
01-Aug-18 22:22 33.682104 -117.860761 330 61ft 0kts
01-Aug-18 22:23 33.682410 -117.860291 180 61ft 2kts
01-Aug-18 22:24 33.682197 -117.860620 275 61ft 0kts
01-Aug-18 22:25 33.682249 -117.860370 226 61ft 2kts
01-Aug-18 22:26 33.682142 -117.860587 267 61ft 0kts
01-Aug-18 22:27 33.682142 -117.860587 267 61ft 0kts
01-Aug-18 22:28 33.682142 -117.860587 267 61ft 0kts

Navigation Log

Ident Type
Flight plan parsing failed, navigation log unavailable